Time;durP1;ratioP1;P1;durP2;ratioP2;P2;SDS_P1;SDS_P2;PMS_P1;PMS_P2;Temp;Humidity;BMP_temperature;BMP_pressure;BME280_temperature;BME280_humidity;BME280_pressure;Samples;Min_cycle;Max_cycle;Signal;HPM_P1;HPM_P2
2021/12/12 00:00:31;;;;;;;0.20;0.20;;;;;;;5.92;53.61;99807.41;4397644;32;20278;-86
2021/12/12 00:03:14;;;;;;;0.20;0.20;;;;;;;6.03;53.12;99806.09;4392595;32;780335;-84
2021/12/12 00:05:51;;;;;;;0.30;0.30;;;;;;;5.76;53.66;99821.41;4418505;32;20322;-86
2021/12/12 00:08:22;;;;;;;0.40;0.40;;;;;;;6.19;52.92;99822.00;4414366;32;20281;-85
2021/12/12 00:10:54;;;;;;;0.20;0.20;;;;;;;5.97;53.00;99823.03;4258976;32;20287;-85
2021/12/12 00:13:25;;;;;;;0.30;0.30;;;;;;;5.33;54.58;99829.28;4385325;32;20298;-87
2021/12/12 00:15:52;;;;;;;0.60;0.60;;;;;;;5.31;54.83;99830.91;4398017;32;20283;-85
2021/12/12 00:18:20;;;;;;;0.47;0.47;;;;;;;5.28;55.03;99830.78;4396885;32;20690;-84
2021/12/12 00:20:48;;;;;;;0.40;0.40;;;;;;;5.66;53.95;99827.03;4400783;32;20285;-84
2021/12/12 00:23:16;;;;;;;0.35;0.35;;;;;;;5.55;54.10;99836.03;4405824;32;20668;-85
2021/12/12 00:25:46;;;;;;;0.30;0.30;;;;;;;6.08;52.87;99843.94;4398951;32;20356;-85
2021/12/12 00:28:15;;;;;;;0.20;0.20;;;;;;;5.46;54.69;99846.88;4399248;32;20466;-86
2021/12/12 00:30:43;;;;;;;0.20;0.20;;;;;;;5.50;54.60;99848.72;4403269;32;20289;-86
2021/12/12 00:33:10;;;;;;;0.30;0.30;;;;;;;5.59;54.41;99850.75;4403064;32;20283;-84
2021/12/12 00:35:38;;;;;;;0.28;0.28;;;;;;;5.78;53.77;99842.88;4398934;32;20325;-85
2021/12/12 00:38:11;;;;;;;0.88;0.88;;;;;;;5.84;53.19;99842.25;4399229;32;21049;-85
2021/12/12 00:40:43;;;;;;;0.35;0.35;;;;;;;4.93;56.17;99853.41;4406940;32;20378;-84
2021/12/12 00:43:32;;;;;;;0.70;0.70;;;;;;;5.27;55.05;99839.31;4406498;32;20269;-83
2021/12/12 00:46:03;;;;;;;0.40;0.40;;;;;;;5.51;54.08;99845.34;4390886;32;20298;-84
2021/12/12 00:48:30;;;;;;;0.30;0.30;;;;;;;5.59;53.98;99828.53;4405436;32;20278;-83
2021/12/12 00:50:58;;;;;;;0.40;0.40;;;;;;;5.99;52.54;99835.06;4405276;32;20325;-84
2021/12/12 00:53:26;;;;;;;0.60;0.60;;;;;;;5.64;53.69;99832.94;4398970;32;20624;-84
2021/12/12 00:55:54;;;;;;;0.70;0.70;;;;;;;5.29;54.51;99837.66;4401833;32;20614;-84
2021/12/12 00:58:24;;;;;;;0.80;0.80;;;;;;;5.68;53.41;99837.34;4404025;32;20282;-85
2021/12/12 01:00:55;;;;;;;1.70;1.60;;;;;;;5.50;53.79;99843.59;4398823;32;20580;-84
2021/12/12 01:03:29;;;;;;;1.08;1.08;;;;;;;5.55;53.35;99841.19;4398794;32;20332;-84
2021/12/12 01:06:03;;;;;;;2.00;1.90;;;;;;;5.76;53.07;99841.09;4398150;32;20271;-84
2021/12/12 01:08:31;;;;;;;147.65;125.40;;;;;;;5.04;55.11;99857.28;4401561;32;20278;-83
2021/12/12 01:11:11;;;;;;;140.90;124.40;;;;;;;5.46;54.04;99857.16;4403861;32;20279;-84
2021/12/12 01:13:39;;;;;;;90.57;81.53;;;;;;;5.21;54.72;99864.75;4398518;32;20271;-84
2021/12/12 01:16:14;;;;;;;202.05;143.77;;;;;;;5.47;53.88;99864.03;4406697;32;20374;-86
2021/12/12 01:18:44;;;;;;;160.50;131.18;;;;;;;5.07;55.43;99867.66;4398319;32;20267;-85
2021/12/12 01:21:16;;;;;;;169.87;133.55;;;;;;;5.67;53.31;99867.31;4384229;32;21016;-85
2021/12/12 01:23:58;;;;;;;177.75;137.68;;;;;;;5.52;53.81;99866.75;4398701;32;20378;-83
2021/12/12 01:26:28;;;;;;;192.15;140.35;;;;;;;5.41;54.01;99874.06;4393854;32;20266;-85
2021/12/12 01:28:59;;;;;;;205.10;144.07;;;;;;;5.10;55.04;99877.16;4398820;32;20271;-83
2021/12/12 01:31:32;;;;;;;202.45;143.90;;;;;;;5.36;54.30;99878.16;4399697;32;21069;-84
2021/12/12 01:34:10;;;;;;;212.45;148.00;;;;;;;5.16;54.27;99881.66;4405408;32;20274;-85
2021/12/12 01:36:47;;;;;;;225.87;151.50;;;;;;;5.16;54.39;99886.78;4402359;32;20263;-83
2021/12/12 01:39:18;;;;;;;241.07;153.27;;;;;;;5.47;53.80;99879.41;4399833;32;20270;-83
2021/12/12 01:41:51;;;;;;;466.60;211.75;;;;;;;5.39;53.63;99880.81;4385912;32;20368;-82
2021/12/12 01:44:37;;;;;;;368.60;199.82;;;;;;;5.09;54.87;99876.28;4388941;32;20325;-80
2021/12/12 01:47:08;;;;;;;384.00;206.90;;;;;;;5.07;54.59;99893.31;4392547;32;20302;-80
2021/12/12 01:49:41;;;;;;;381.67;205.05;;;;;;;5.20;54.26;99883.50;4374845;32;20265;-83
2021/12/12 01:52:13;;;;;;;387.17;208.32;;;;;;;5.39;53.71;99896.22;4378401;32;20285;-83
2021/12/12 01:54:44;;;;;;;443.23;210.15;;;;;;;5.31;53.96;99898.50;4385034;32;20319;-84
2021/12/12 01:57:18;;;;;;;453.12;216.00;;;;;;;5.39;53.48;99906.47;4384523;32;20284;-81
2021/12/12 01:59:49;;;;;;;368.40;198.15;;;;;;;5.13;54.51;99901.22;4371364;32;22848;-82
2021/12/12 02:02:21;;;;;;;365.20;197.57;;;;;;;5.46;53.59;99897.34;4392192;32;20662;-82
2021/12/12 02:04:53;;;;;;;366.15;199.02;;;;;;;5.47;53.16;99899.97;4391067;32;20652;-82
2021/12/12 02:07:24;;;;;;;370.95;201.35;;;;;;;5.17;54.14;99898.78;4396825;32;20272;-84
2021/12/12 02:09:52;;;;;;;433.50;212.80;;;;;;;5.30;53.79;99906.16;4384721;32;20272;-83
2021/12/12 02:12:21;;;;;;;497.17;216.45;;;;;;;4.99;54.53;99894.69;4396173;32;20791;-82
2021/12/12 02:14:48;;;;;;;554.97;220.32;;;;;;;5.02;54.74;99894.81;4391352;32;20294;-82
2021/12/12 02:17:30;;;;;;;676.60;236.47;;;;;;;5.24;53.87;99891.41;4384643;32;20273;-82
2021/12/12 02:20:13;;;;;;;727.20;241.88;;;;;;;5.09;54.42;99878.84;4371615;32;20573;-80
2021/12/12 02:23:23;;;;;;;674.57;237.43;;;;;;;5.21;54.16;99875.88;4377237;32;20392;-83
2021/12/12 02:36:51;;;;;;;648.10;232.15;;;;;;;4.82;54.99;99875.22;4386560;32;20273;-83
2021/12/12 02:39:21;;;;;;;619.88;228.65;;;;;;;4.56;56.15;99867.38;4385960;32;20749;-83
2021/12/12 02:41:52;;;;;;;615.05;231.98;;;;;;;5.41;53.09;99866.34;4394617;32;20267;-85
2021/12/12 02:44:22;;;;;;;619.35;228.95;;;;;;;5.49;52.86;99867.53;4385025;32;20543;-80
2021/12/12 02:46:52;;;;;;;632.72;233.87;;;;;;;5.44;53.10;99869.03;4384456;32;20287;-84
2021/12/12 02:52:30;;;;;;;638.55;231.18;;;;;;;5.57;52.85;99866.09;4360044;32;20265;-84
2021/12/12 02:55:00;;;;;;;620.12;228.48;;;;;;;5.47;52.99;99871.72;4352799;32;20313;-85
2021/12/12 02:57:27;;;;;;;633.92;230.35;;;;;;;5.25;53.31;99879.44;4376853;32;20300;-86
2021/12/12 02:59:54;;;;;;;632.77;231.27;;;;;;;5.05;53.98;99879.56;4395711;32;20272;-83
2021/12/12 03:02:27;;;;;;;635.13;234.62;;;;;;;5.48;52.93;99878.59;4383427;32;20698;-84
2021/12/12 03:04:58;;;;;;;629.80;228.45;;;;;;;5.44;53.02;99879.31;4384414;32;20290;-86
2021/12/12 03:07:25;;;;;;;621.90;228.90;;;;;;;5.49;52.72;99882.94;4382183;32;20849;-83
2021/12/12 03:09:56;;;;;;;603.55;222.93;;;;;;;5.56;52.54;99884.91;4370468;32;20303;-81
2021/12/12 03:12:33;;;;;;;589.00;222.68;;;;;;;6.04;50.67;99889.19;4388087;32;20287;-84
2021/12/12 03:15:10;;;;;;;582.60;226.73;;;;;;;5.71;51.41;99884.59;4387688;32;20288;-83
2021/12/12 03:17:39;;;;;;;600.33;226.37;;;;;;;5.81;51.36;99890.94;4383094;32;20297;-83
2021/12/12 03:20:32;;;;;;;594.72;224.45;;;;;;;5.37;52.49;99887.59;4384697;32;20340;-83
2021/12/12 03:23:03;;;;;;;589.85;219.45;;;;;;;5.74;51.37;99883.81;4384877;32;20257;-84
2021/12/12 03:25:32;;;;;;;593.72;223.35;;;;;;;5.10;53.24;99888.28;4384249;32;20324;-82
2021/12/12 03:28:00;;;;;;;575.40;222.75;;;;;;;5.38;52.68;99899.59;4384705;32;20276;-83
2021/12/12 03:30:28;;;;;;;580.50;219.60;;;;;;;5.30;52.52;99895.91;4389842;32;20393;-79
2021/12/12 03:32:55;;;;;;;598.78;223.45;;;;;;;5.39;52.39;99895.34;4372829;32;20281;-82
2021/12/12 03:35:23;;;;;;;604.85;223.25;;;;;;;4.85;54.02;99890.69;4401703;32;20279;-82
2021/12/12 03:37:51;;;;;;;635.17;229.95;;;;;;;5.08;53.18;99892.50;4399113;32;20311;-82
2021/12/12 03:40:25;;;;;;;616.60;229.23;;;;;;;5.09;53.32;99907.06;4399066;32;21210;-82
2021/12/12 03:42:55;;;;;;;688.70;230.65;;;;;;;5.26;52.22;99910.28;4399633;32;20662;-83
2021/12/12 03:45:22;;;;;;;688.53;229.38;;;;;;;5.00;53.00;99906.69;4394360;32;20297;-82
2021/12/12 03:48:09;;;;;;;685.04;231.88;;;;;;;4.79;54.13;99916.13;4339084;32;10001369;-81
2021/12/12 03:50:39;;;;;;;662.33;232.90;;;;;;;4.87;53.58;99917.28;4390728;32;20298;-82
2021/12/12 03:53:06;;;;;;;647.63;228.30;;;;;;;4.99;53.26;99920.34;4398511;32;21089;-82
2021/12/12 03:55:34;;;;;;;669.37;232.55;;;;;;;5.29;52.09;99909.53;4397791;32;20275;-82
2021/12/12 03:58:03;;;;;;;736.62;235.88;;;;;;;5.00;53.02;99911.84;4394678;32;20268;-80
2021/12/12 04:00:44;;;;;;;780.92;238.70;;;;;;;4.74;53.85;99922.75;4389752;32;20269;-81
2021/12/12 04:03:12;;;;;;;777.28;237.07;;;;;;;4.54;54.06;99925.37;4384142;32;20261;-82
2021/12/12 04:05:44;;;;;;;791.55;247.07;;;;;;;4.28;54.42;99936.22;4388514;32;20382;-82
2021/12/12 04:08:12;;;;;;;652.17;232.90;;;;;;;4.15;55.05;99940.81;4385378;32;20709;-83
2021/12/12 04:10:40;;;;;;;666.95;230.15;;;;;;;4.65;53.27;99944.62;4370666;32;20327;-83
2021/12/12 04:13:08;;;;;;;660.65;231.30;;;;;;;4.64;53.50;99942.88;4383492;32;20338;-82
2021/12/12 04:15:35;;;;;;;676.40;230.48;;;;;;;4.84;52.68;99947.94;4383898;32;20277;-82
2021/12/12 04:18:04;;;;;;;681.25;234.43;;;;;;;4.82;53.16;99950.47;4370038;32;20315;-81
2021/12/12 04:20:35;;;;;;;689.23;234.97;;;;;;;5.19;51.89;99958.75;4385949;32;20305;-82
2021/12/12 04:23:04;;;;;;;709.77;230.50;;;;;;;5.12;51.42;99948.25;4399254;32;20263;-83
2021/12/12 04:25:31;;;;;;;727.42;238.05;;;;;;;4.93;52.27;99950.88;4255959;32;20342;-82
2021/12/12 04:27:57;;;;;;;729.47;240.55;;;;;;;4.76;52.99;99951.91;4388314;32;20285;-82
2021/12/12 04:30:25;;;;;;;728.45;237.23;;;;;;;5.05;51.68;99966.78;4384027;32;21207;-81
2021/12/12 04:32:52;;;;;;;720.92;242.62;;;;;;;4.92;52.21;99964.53;4383608;32;20265;-82
2021/12/12 04:35:25;;;;;;;608.87;224.25;;;;;;;5.08;52.27;99972.03;4390928;32;20295;-82
2021/12/12 04:37:54;;;;;;;606.53;223.68;;;;;;;4.95;51.60;99961.22;4384940;32;20339;-82
2021/12/12 04:40:24;;;;;;;590.12;224.10;;;;;;;5.46;50.53;99964.97;4383826;32;20856;-81
2021/12/12 04:42:54;;;;;;;581.80;220.57;;;;;;;5.26;51.03;99971.00;4372248;32;20289;-82
2021/12/12 04:45:57;;;;;;;577.08;220.77;;;;;;;5.31;51.18;99969.50;4404305;32;20327;-83
2021/12/12 04:51:47;;;;;;;577.10;221.18;;;;;;;5.04;52.02;99984.66;4387231;32;20287;-81
2021/12/12 04:54:26;;;;;;;587.15;222.32;;;;;;;4.91;52.31;99978.16;4394526;32;20304;-80
2021/12/12 04:57:01;;;;;;;579.60;221.20;;;;;;;5.39;50.55;99988.63;4384128;32;20635;-80
2021/12/12 04:59:52;;;;;;;570.20;219.02;;;;;;;5.02;51.92;99976.03;4384415;32;20280;-82
2021/12/12 05:02:34;;;;;;;576.08;218.82;;;;;;;5.21;51.23;99977.66;4396371;32;20273;-81
2021/12/12 05:05:13;;;;;;;582.17;221.95;;;;;;;5.20;51.54;99968.19;4388164;32;20347;-83
2021/12/12 05:07:53;;;;;;;577.25;221.05;;;;;;;5.09;51.72;99968.63;4385327;32;20269;-82
2021/12/12 05:10:53;;;;;;;574.88;220.30;;;;;;;5.30;51.31;99972.88;4390234;32;20331;-84
2021/12/12 05:13:25;;;;;;;589.78;225.38;;;;;;;5.19;51.64;99971.56;4381645;32;20306;-85
2021/12/12 05:15:56;;;;;;;576.85;218.37;;;;;;;5.12;52.02;99973.91;4390496;32;20619;-84
2021/12/12 05:18:29;;;;;;;594.65;226.73;;;;;;;5.02;51.62;99973.47;4369953;32;20281;-84
2021/12/12 05:21:10;;;;;;;592.17;221.77;;;;;;;5.59;50.75;99981.72;4394742;32;20288;-83
2021/12/12 05:23:41;;;;;;;584.78;224.25;;;;;;;5.59;50.58;99972.31;4382129;32;20375;-83
2021/12/12 05:26:22;;;;;;;602.75;222.52;;;;;;;5.67;50.38;99984.56;4394476;32;20751;-81
2021/12/12 05:28:54;;;;;;;594.35;222.00;;;;;;;5.73;50.42;99979.66;4384099;32;20275;-82
2021/12/12 05:31:21;;;;;;;554.73;219.23;;;;;;;5.47;50.83;99971.84;4385621;32;20289;-82
2021/12/12 05:33:51;;;;;;;551.78;220.20;;;;;;;4.74;52.80;99968.91;4394586;32;20631;-80
2021/12/12 05:36:19;;;;;;;555.33;221.83;;;;;;;5.02;51.94;99984.59;4383093;32;20649;-83
2021/12/12 05:38:47;;;;;;;547.75;221.10;;;;;;;5.40;50.80;99980.13;4371174;32;20333;-82
2021/12/12 05:41:18;;;;;;;562.47;220.55;;;;;;;4.69;53.11;99975.53;4373318;32;20291;-82
2021/12/12 05:43:46;;;;;;;530.05;220.63;;;;;;;4.80;52.53;99984.53;4393917;32;20268;-82
2021/12/12 05:46:15;;;;;;;527.00;219.98;;;;;;;5.42;50.75;99983.59;4384967;32;20285;-83
2021/12/12 05:48:44;;;;;;;526.83;218.30;;;;;;;5.51;50.34;99983.97;4380667;32;20272;-82
2021/12/12 05:51:11;;;;;;;535.15;218.27;;;;;;;5.19;51.05;99979.28;4384394;32;20287;-84
2021/12/12 05:53:38;;;;;;;518.37;217.35;;;;;;;5.37;50.50;99974.88;4408643;32;20332;-82
2021/12/12 05:56:06;;;;;;;526.65;216.88;;;;;;;5.33;50.69;99978.16;4394316;32;20335;-83
2021/12/12 05:58:33;;;;;;;523.22;218.30;;;;;;;5.57;50.30;99979.06;4394129;32;20308;-83
2021/12/12 06:01:06;;;;;;;566.40;221.63;;;;;;;5.39;50.58;99978.34;4382819;32;20292;-82
2021/12/12 06:03:37;;;;;;;526.33;213.95;;;;;;;5.56;50.22;99982.47;4394029;32;20647;-84
2021/12/12 06:06:11;;;;;;;520.80;215.33;;;;;;;4.55;52.59;99991.19;4406443;32;20284;-86
2021/12/12 06:08:39;;;;;;;536.28;216.75;;;;;;;5.69;49.04;99993.22;4393926;32;20265;-86
2021/12/12 06:11:08;;;;;;;528.45;217.68;;;;;;;5.30;50.27;99988.28;4400126;32;20263;-86
2021/12/12 06:13:37;;;;;;;526.08;218.90;;;;;;;5.48;49.96;99988.97;4406402;32;20297;-84
2021/12/12 06:16:05;;;;;;;535.40;216.73;;;;;;;5.76;48.56;99985.78;4386039;32;20271;-84
2021/12/12 06:18:33;;;;;;;530.42;217.18;;;;;;;5.46;49.70;99990.62;4386327;32;20341;-84
2021/12/12 06:21:00;;;;;;;536.63;218.13;;;;;;;5.49;49.38;100000.16;4387148;32;20347;-85
2021/12/12 06:23:28;;;;;;;539.97;214.70;;;;;;;4.88;51.32;100003.66;4406458;32;20671;-84
2021/12/12 06:25:56;;;;;;;538.70;215.93;;;;;;;5.72;48.54;100013.87;4399837;32;20588;-84
2021/12/12 06:28:29;;;;;;;554.33;220.02;;;;;;;5.78;48.52;100014.09;4405262;32;20287;-85
2021/12/12 06:30:57;;;;;;;587.10;218.30;;;;;;;5.57;48.82;100015.00;4400504;32;20272;-84
2021/12/12 06:33:24;;;;;;;571.10;219.60;;;;;;;4.89;51.10;100021.72;4400012;32;20294;-87
2021/12/12 06:35:52;;;;;;;599.70;223.15;;;;;;;5.13;49.83;100024.38;4398578;32;20331;-85
2021/12/12 06:38:20;;;;;;;582.28;220.80;;;;;;;4.86;51.15;100015.56;4406417;32;20277;-82
2021/12/12 06:40:48;;;;;;;586.92;222.63;;;;;;;4.65;51.93;100026.66;4401322;32;20279;-83
2021/12/12 06:43:18;;;;;;;592.72;221.48;;;;;;;5.24;50.49;100029.09;4399547;32;20271;-86
2021/12/12 06:45:46;;;;;;;599.45;220.00;;;;;;;5.21;50.21;100028.97;4399920;32;20271;-88
2021/12/12 06:48:14;;;;;;;592.17;220.27;;;;;;;4.96;50.70;100022.84;4405657;32;20639;-87
2021/12/12 06:50:44;;;;;;;586.05;220.23;;;;;;;5.20;50.30;100027.19;4388224;32;20283;-88
2021/12/12 06:53:14;;;;;;;566.72;220.70;;;;;;;5.51;49.39;100030.19;4405357;32;20266;-86
2021/12/12 06:55:44;;;;;;;578.90;218.75;;;;;;;5.53;48.93;100023.41;4387977;32;20342;-86
2021/12/12 06:58:12;;;;;;;571.95;219.15;;;;;;;5.37;49.59;100032.22;4402515;32;20273;-91
2021/12/12 07:00:41;;;;;;;572.80;216.15;;;;;;;5.53;49.23;100033.69;4408638;32;20751;-89
2021/12/12 07:03:08;;;;;;;574.92;218.85;;;;;;;5.29;49.89;100025.00;4414853;32;20257;-84
2021/12/12 07:05:36;;;;;;;575.47;215.63;;;;;;;5.87;48.12;100035.00;4414986;32;20274;-87
2021/12/12 07:08:03;;;;;;;579.40;219.65;;;;;;;5.77;48.37;100032.88;4413205;32;20281;-87
2021/12/12 07:10:31;;;;;;;567.70;216.20;;;;;;;5.67;49.13;100035.91;4400973;32;20269;-87
2021/12/12 07:13:17;;;;;;;561.12;217.07;;;;;;;6.02;47.53;100034.72;4408863;32;20279;-86
2021/12/12 07:15:48;;;;;;;573.78;218.23;;;;;;;5.86;47.95;100038.38;4413068;32;20285;-86
2021/12/12 07:18:19;;;;;;;572.05;219.50;;;;;;;5.56;48.49;100027.81;4414757;32;20278;-89
2021/12/12 07:20:50;;;;;;;588.08;221.93;;;;;;;5.68;48.47;100041.13;4381889;32;20392;-89
2021/12/12 07:23:17;;;;;;;582.17;218.88;;;;;;;5.58;48.74;100037.34;4395735;32;20261;-86
2021/12/12 07:25:46;;;;;;;576.90;217.50;;;;;;;5.17;50.15;100034.78;4383854;32;20332;-85
2021/12/12 07:28:14;;;;;;;585.92;221.43;;;;;;;5.52;49.40;100024.25;4393014;32;20359;-81
2021/12/12 07:30:41;;;;;;;587.03;221.48;;;;;;;5.71;48.54;100027.50;4395903;32;20303;-78
2021/12/12 07:33:09;;;;;;;597.80;223.48;;;;;;;5.46;49.24;100034.28;4395072;32;20693;-84
2021/12/12 07:35:39;;;;;;;611.97;225.02;;;;;;;5.27;49.08;100018.97;4397032;32;20294;-78
2021/12/12 07:38:07;;;;;;;602.28;227.15;;;;;;;5.43;48.93;100021.31;4382152;32;20354;-79
2021/12/12 07:40:35;;;;;;;596.92;224.45;;;;;;;5.02;49.87;100023.09;4396714;32;20349;-79
2021/12/12 07:43:03;;;;;;;597.60;220.60;;;;;;;4.85;50.05;100024.06;4412971;32;21015;-79
2021/12/12 07:45:31;;;;;;;603.15;221.48;;;;;;;4.74;51.47;100022.75;4406753;32;20275;-83
2021/12/12 07:47:58;;;;;;;599.45;223.70;;;;;;;4.82;51.27;100026.53;4393786;32;21043;-79
2021/12/12 07:50:27;;;;;;;599.28;219.48;;;;;;;5.30;49.88;100025.09;4401966;32;20277;-80
2021/12/12 07:52:54;;;;;;;599.33;219.98;;;;;;;5.72;48.07;100034.41;4392483;32;20318;-82
2021/12/12 07:55:22;;;;;;;597.05;223.27;;;;;;;5.72;47.75;100042.12;4386579;32;20637;-83
2021/12/12 07:57:51;;;;;;;597.30;219.77;;;;;;;5.42;48.85;100034.94;4407659;32;20281;-82
2021/12/12 08:00:22;;;;;;;589.58;223.38;;;;;;;5.62;48.53;100032.31;4400079;32;20284;-83
2021/12/12 08:02:51;;;;;;;590.67;221.75;;;;;;;5.55;49.12;100033.75;4393344;32;20640;-84
2021/12/12 08:05:20;;;;;;;604.83;222.27;;;;;;;5.49;49.06;100031.84;4397438;32;20279;-83
2021/12/12 08:07:47;;;;;;;592.30;217.70;;;;;;;5.24;49.93;100039.38;4391569;32;20757;-83
2021/12/12 08:10:16;;;;;;;589.72;216.63;;;;;;;5.54;48.87;100035.44;4384081;32;20274;-83
2021/12/12 08:12:43;;;;;;;582.30;218.30;;;;;;;5.60;48.71;100035.69;4405454;32;20273;-82
2021/12/12 08:15:15;;;;;;;582.25;220.18;;;;;;;5.40;49.08;100044.28;4413299;32;20289;-82
2021/12/12 08:17:43;;;;;;;570.85;217.32;;;;;;;5.69;48.38;100045.44;4414078;32;20265;-83
2021/12/12 08:20:13;;;;;;;537.58;220.50;;;;;;;5.98;47.47;100044.00;4395485;32;21031;-84
2021/12/12 08:22:42;;;;;;;524.77;214.40;;;;;;;5.77;48.50;100048.28;4405363;32;20280;-83
2021/12/12 08:25:11;;;;;;;507.83;212.70;;;;;;;6.42;46.55;100052.50;4400601;32;20277;-84
2021/12/12 08:27:39;;;;;;;496.17;217.85;;;;;;;6.53;45.68;100056.31;4409885;32;20368;-81
2021/12/12 08:30:07;;;;;;;424.10;211.40;;;;;;;6.03;47.43;100057.03;4381670;32;20285;-84
2021/12/12 08:32:35;;;;;;;;;;;;;;;5.66;49.38;100059.84;4386303;32;20294;-81
2021/12/12 08:35:10;;;;;;;;;;;;;;;5.63;48.70;100059.72;4408769;32;19974;-77
2021/12/12 08:37:37;;;;;;;;;;;;;;;5.69;48.81;100059.97;4407611;32;19986;-84
2021/12/12 08:40:04;;;;;;;;;;;;;;;6.27;47.47;100062.22;4400519;32;20014;-85
2021/12/12 08:42:31;;;;;;;;;;;;;;;6.67;45.98;100063.66;4410776;32;19985;-83
2021/12/12 08:44:59;;;;;;;;;;;;;;;6.48;46.72;100054.41;4403592;32;19981;-82
2021/12/12 08:47:26;;;;;;;;;;;;;;;6.55;47.00;100058.06;4396839;32;20270;-82
2021/12/12 08:49:53;;;;;;;;;;;;;;;6.33;47.40;100057.28;4392879;32;20003;-81
2021/12/12 08:52:34;;;;;;;;;;;;;;;6.53;46.02;100051.16;4402651;32;20344;-80
2021/12/12 08:55:02;;;;;;;;;;;;;;;6.64;47.18;100055.84;4395128;32;20012;-83
2021/12/12 08:57:38;;;;;;;;;;;;;;;6.91;45.58;100051.63;4395151;32;19973;-80
2021/12/12 09:00:27;;;;;;;;;;;;;;;6.81;45.98;100057.28;4395824;32;20483;-84
2021/12/12 09:02:56;;;;;;;;;;;;;;;6.46;46.84;100059.47;4409361;32;20005;-81
2021/12/12 09:05:26;;;;;;;;;;;;;;;6.22;47.86;100058.59;4409818;32;20044;-81
2021/12/12 09:08:18;;;;;;;;;;;;;;;6.62;46.96;100054.91;4398778;32;20032;-87
2021/12/12 09:11:08;;;;;;;;;;;;;;;6.69;46.46;100051.72;4400526;32;20011;-83
2021/12/12 09:13:39;;;;;;;;;;;;;;;7.04;45.31;100052.03;4391911;32;19970;-81
2021/12/12 09:16:31;;;;;;;;;;;;;;;7.27;44.80;100053.66;4400131;32;20821;-82
2021/12/12 09:19:00;;;;;;;;;;;;;;;6.80;47.04;100050.41;4394941;32;20471;-83
2021/12/12 09:21:30;;;;;;;;;;;;;;;7.31;44.33;100045.25;4389419;32;20023;-85
2021/12/12 09:24:05;;;;;;;;;;;;;;;7.20;44.46;100046.56;4396434;32;20891;-78
2021/12/12 09:26:34;;;;;;;;;;;;;;;7.03;44.92;100042.59;4393791;32;19989;-79
2021/12/12 09:29:07;;;;;;;;;;;;;;;6.84;46.18;100052.25;4395755;32;20035;-78
2021/12/12 09:31:38;;;;;;;;;;;;;;;6.65;48.17;100044.72;4404882;32;19982;-78
2021/12/12 09:34:10;;;;;;;;;;;;;;;7.09;45.29;100037.63;4403818;32;19969;-77
2021/12/12 09:36:38;;;;;;;;;;;;;;;6.85;45.68;100043.69;4391565;32;20338;-79
2021/12/12 09:39:07;;;;;;;;;;;;;;;6.97;45.37;100041.53;4407168;32;19981;-77
2021/12/12 09:41:53;;;;;;;;;;;;;;;6.99;45.88;100027.03;4401409;32;20545;-78
2021/12/12 09:44:25;;;;;;;;;;;;;;;7.01;45.89;100036.50;4394974;32;19966;-78
2021/12/12 09:47:11;;;;;;;;;;;;;;;6.83;46.41;100029.91;4404511;32;20039;-77
2021/12/12 09:53:03;;;;;;;;;;;;;;;7.14;45.74;100036.06;4410095;32;19977;-79
2021/12/12 09:55:38;;;;;;;;;;;;;;;7.01;46.75;100039.06;4412268;32;19980;-79
2021/12/12 09:58:06;;;;;;;;;;;;;;;7.52;44.70;100046.75;4417359;32;20364;-78
2021/12/12 10:00:53;;;;;;;;;;;;;;;7.17;46.24;100041.31;4426307;32;20027;-78
2021/12/12 10:03:23;;;;;;;;;;;;;;;7.54;45.05;100032.22;4427022;32;19999;-77
2021/12/12 10:06:01;;;;;;;;;;;;;;;7.46;45.19;100045.69;4416419;32;19981;-78
2021/12/12 10:08:39;;;;;;;;;;;;;;;7.10;47.06;100044.53;4411501;32;19989;-77
2021/12/12 10:11:08;;;;;;;;;;;;;;;7.51;45.11;100047.56;4425240;32;19997;-78
2021/12/12 10:13:51;;;;;;;;;;;;;;;6.77;47.45;100042.56;4413349;32;19989;-79
2021/12/12 10:16:31;;;;;;;;;;;;;;;7.57;44.97;100047.78;4410065;32;20031;-77
2021/12/12 10:19:17;;;;;;;;;;;;;;;7.74;44.90;100041.41;4411565;32;19985;-77
2021/12/12 10:21:47;;;;;;;;;;;;;;;7.56;44.50;100052.06;4405029;32;19994;-79
2021/12/12 10:24:17;;;;;;;;;;;;;;;7.48;44.81;100052.62;4407554;32;19973;-79
2021/12/12 10:26:45;;;;;;;;;;;;;;;7.44;45.37;100047.37;4412341;32;20027;-79
2021/12/12 10:29:20;;;;;;;;;;;;;;;7.52;44.94;100054.47;4436154;32;20016;-78
2021/12/12 10:31:55;;;;;;;;;;;;;;;7.25;46.01;100045.03;4422462;32;20022;-77
2021/12/12 10:34:31;;;;;;;;;;;;;;;6.98;46.64;100053.56;4394313;32;19981;-77
2021/12/12 10:37:04;;;;;;;;;;;;;;;7.14;46.64;100052.38;4411159;32;19988;-77
2021/12/12 10:39:32;;;;;;;;;;;;;;;6.80;47.06;100050.41;4408896;32;19993;-77
2021/12/12 10:42:00;;;;;;;;;;;;;;;6.70;46.81;100063.72;4415532;32;20513;-77
2021/12/12 10:44:32;;;;;;;;;;;;;;;7.11;45.94;100048.84;4408240;32;19993;-77
2021/12/12 10:47:08;;;;;;;;;;;;;;;6.59;47.09;100044.50;4411822;32;19964;-77
2021/12/12 10:49:54;;;;;;;;;;;;;;;6.82;48.01;100043.59;4410145;32;20031;-77
2021/12/12 10:52:38;;;;;;;;;;;;;;;7.14;46.25;100047.25;4407306;32;19984;-78
2021/12/12 10:55:08;;;;;;;;;;;;;;;7.32;45.71;100046.97;4414610;32;19981;-77
2021/12/12 10:57:36;;;;;;;;;;;;;;;7.09;46.43;100038.50;4401438;32;19970;-77
2021/12/12 11:00:03;;;;;;;;;;;;;;;7.06;47.05;100033.25;4411448;32;19984;-77
2021/12/12 11:02:32;;;;;;;;;;;;;;;7.39;46.66;100045.47;4418872;32;19973;-77
2021/12/12 11:05:02;;;;;;;;;;;;;;;7.25;46.77;100052.75;4417629;32;19985;-79
2021/12/12 11:07:31;;;;;;;;;;;;;;;7.50;45.67;100048.38;4411585;32;19981;-78
2021/12/12 11:10:16;;;;;;;;;;;;;;;7.16;46.74;100039.59;4427843;32;20119;-77
2021/12/12 11:12:45;;;;;;;;;;;;;;;7.35;46.24;100044.50;4414987;32;19994;-77
2021/12/12 11:15:34;;;;;;;;;;;;;;;7.39;46.00;100035.16;4406649;32;19994;-78
2021/12/12 11:18:06;;;;;;;;;;;;;;;7.57;45.49;100042.62;4408858;32;19980;-77
2021/12/12 11:20:39;;;;;;;;;;;;;;;7.29;46.14;100041.72;4426326;32;19985;-77
2021/12/12 11:23:42;;;;;;;;;;;;;;;7.59;45.13;100035.78;4416383;32;19999;-77
2021/12/12 11:26:13;;;;;;;;;;;;;;;7.15;46.54;100037.84;4405245;32;20047;-78
2021/12/12 11:28:46;;;;;;;;;;;;;;;7.21;46.35;100027.72;4398613;32;19992;-78
2021/12/12 11:31:18;;;;;;;;;;;;;;;6.86;47.75;100029.12;4416856;32;19985;-77
2021/12/12 11:33:46;;;;;;;;;;;;;;;7.13;46.94;100029.19;4416386;32;19992;-79
2021/12/12 11:36:15;;;;;;;;;;;;;;;6.99;47.92;100028.75;4401131;32;20629;-80
2021/12/12 11:38:53;;;;;;;;;;;;;;;7.20;46.05;100023.41;4388080;32;19984;-78
2021/12/12 11:41:23;;;;;;;;;;;;;;;7.11;46.40;100025.69;4385647;32;19981;-77
2021/12/12 11:44:08;;;;;;;;;;;;;;;7.37;46.16;100022.25;4386780;32;20517;-79
2021/12/12 11:46:49;;;;;;;;;;;;;;;7.13;45.97;100013.75;4386133;32;20564;-79
2021/12/12 11:49:21;;;;;;;;;;;;;;;7.10;46.40;100000.78;4389623;32;20068;-79
2021/12/12 11:51:49;;;;;;;;;;;;;;;7.19;46.42;100003.66;4379021;32;20049;-80
2021/12/12 11:54:21;;;;;;;;;;;;;;;7.28;46.02;100013.37;4393487;32;19993;-79
2021/12/12 11:56:55;;;;;;;;;;;;;;;7.06;46.82;100011.81;4375259;32;19990;-77
2021/12/12 11:59:25;;;;;;;;;;;;;;;7.18;45.91;100001.91;4394775;32;19982;-81
2021/12/12 12:01:55;;;;;;;;;;;;;;;7.27;45.93;100012.47;4381098;32;19994;-78
2021/12/12 12:04:25;;;;;;;;;;;;;;;7.39;45.91;100018.00;4393238;32;19989;-79
2021/12/12 12:07:10;;;;;;;;;;;;;;;6.70;47.81;100023.47;4396392;32;20303;-79
2021/12/12 12:09:46;;;;;;;;;;;;;;;7.07;46.79;100034.13;4396934;32;19965;-80
2021/12/12 12:12:19;;;;;;;;;;;;;;;6.85;47.18;100023.09;4389284;32;19997;-78
2021/12/12 12:15:05;;;;;;;;;;;;;;;7.09;46.96;100035.06;4386819;32;19995;-78
2021/12/12 12:17:33;;;;;;;;;;;;;;;7.35;45.92;100029.06;4395762;32;20003;-82
2021/12/12 12:20:06;;;;;;;;;;;;;;;7.15;46.42;100037.84;4389662;32;19965;-79
2021/12/12 12:22:47;;;;;;;;;;;;;;;7.28;46.79;100028.81;4381844;32;20060;-79